sensor_id;sensor_type;location;lat;lon;timestamp;P1;durP1;ratioP1;P2;durP2;ratioP2
21927;SDS011;11128;51.096;17.190;2022-12-18T00:02:31;36.50;;;12.68;;
21927;SDS011;11128;51.096;17.190;2022-12-18T00:07:32;40.78;;;14.02;;
21927;SDS011;11128;51.096;17.190;2022-12-18T00:12:33;37.83;;;13.27;;
21927;SDS011;11128;51.096;17.190;2022-12-18T00:17:34;46.08;;;15.02;;
21927;SDS011;11128;51.096;17.190;2022-12-18T00:22:36;41.83;;;14.27;;
21927;SDS011;11128;51.096;17.190;2022-12-18T00:27:37;41.78;;;13.13;;
21927;SDS011;11128;51.096;17.190;2022-12-18T00:32:38;32.60;;;12.32;;
21927;SDS011;11128;51.096;17.190;2022-12-18T00:37:40;35.97;;;11.88;;
21927;SDS011;11128;51.096;17.190;2022-12-18T00:42:41;41.42;;;11.90;;
21927;SDS011;11128;51.096;17.190;2022-12-18T00:47:58;50.17;;;13.45;;
21927;SDS011;11128;51.096;17.190;2022-12-18T00:52:59;39.67;;;12.48;;
21927;SDS011;11128;51.096;17.190;2022-12-18T00:58:01;39.47;;;12.88;;
21927;SDS011;11128;51.096;17.190;2022-12-18T01:03:02;43.95;;;12.82;;
21927;SDS011;11128;51.096;17.190;2022-12-18T01:08:04;41.88;;;11.73;;
21927;SDS011;11128;51.096;17.190;2022-12-18T01:13:05;32.75;;;11.00;;
21927;SDS011;11128;51.096;17.190;2022-12-18T01:18:06;31.30;;;10.75;;
21927;SDS011;11128;51.096;17.190;2022-12-18T01:23:08;27.17;;;10.50;;
21927;SDS011;11128;51.096;17.190;2022-12-18T01:28:10;40.85;;;12.23;;
21927;SDS011;11128;51.096;17.190;2022-12-18T01:33:11;31.65;;;10.85;;
21927;SDS011;11128;51.096;17.190;2022-12-18T01:38:13;36.60;;;11.93;;
21927;SDS011;11128;51.096;17.190;2022-12-18T01:43:14;30.70;;;9.98;;
21927;SDS011;11128;51.096;17.190;2022-12-18T01:48:16;32.92;;;11.30;;
21927;SDS011;11128;51.096;17.190;2022-12-18T01:53:19;29.60;;;10.98;;
21927;SDS011;11128;51.096;17.190;2022-12-18T01:58:24;36.85;;;12.10;;
21927;SDS011;11128;51.096;17.190;2022-12-18T02:03:42;33.15;;;10.38;;
21927;SDS011;11128;51.096;17.190;2022-12-18T02:08:50;36.72;;;11.52;;
21927;SDS011;11128;51.096;17.190;2022-12-18T02:14:12;42.00;;;11.40;;
21927;SDS011;11128;51.096;17.190;2022-12-18T02:24:57;32.13;;;10.67;;
21927;SDS011;11128;51.096;17.190;2022-12-18T02:30:07;34.00;;;10.68;;
21927;SDS011;11128;51.096;17.190;2022-12-18T02:35:12;44.45;;;13.57;;
21927;SDS011;11128;51.096;17.190;2022-12-18T02:40:16;38.30;;;12.50;;
21927;SDS011;11128;51.096;17.190;2022-12-18T02:45:20;30.63;;;11.15;;
21927;SDS011;11128;51.096;17.190;2022-12-18T02:50:34;34.70;;;11.00;;
21927;SDS011;11128;51.096;17.190;2022-12-18T02:56:03;45.42;;;12.82;;
21927;SDS011;11128;51.096;17.190;2022-12-18T03:01:15;40.75;;;11.25;;
21927;SDS011;11128;51.096;17.190;2022-12-18T03:06:33;32.97;;;11.38;;
21927;SDS011;11128;51.096;17.190;2022-12-18T03:11:40;35.58;;;12.13;;
21927;SDS011;11128;51.096;17.190;2022-12-18T03:17:05;33.75;;;11.45;;
21927;SDS011;11128;51.096;17.190;2022-12-18T03:22:11;33.97;;;12.15;;
21927;SDS011;11128;51.096;17.190;2022-12-18T03:27:13;33.63;;;11.30;;
21927;SDS011;11128;51.096;17.190;2022-12-18T03:32:23;31.75;;;10.85;;
21927;SDS011;11128;51.096;17.190;2022-12-18T03:37:32;32.28;;;10.25;;
21927;SDS011;11128;51.096;17.190;2022-12-18T03:42:39;38.60;;;12.25;;
21927;SDS011;11128;51.096;17.190;2022-12-18T03:48:03;39.65;;;11.20;;
21927;SDS011;11128;51.096;17.190;2022-12-18T03:58:33;26.58;;;9.85;;
21927;SDS011;11128;51.096;17.190;2022-12-18T04:03:38;32.28;;;10.07;;
21927;SDS011;11128;51.096;17.190;2022-12-18T04:08:40;31.70;;;10.68;;
21927;SDS011;11128;51.096;17.190;2022-12-18T04:13:42;31.05;;;9.57;;
21927;SDS011;11128;51.096;17.190;2022-12-18T04:18:43;37.80;;;11.05;;
21927;SDS011;11128;51.096;17.190;2022-12-18T04:23:44;32.25;;;10.48;;
21927;SDS011;11128;51.096;17.190;2022-12-18T04:28:46;31.98;;;10.70;;
21927;SDS011;11128;51.096;17.190;2022-12-18T04:33:47;25.83;;;9.48;;
21927;SDS011;11128;51.096;17.190;2022-12-18T04:38:48;31.13;;;9.38;;
21927;SDS011;11128;51.096;17.190;2022-12-18T04:43:50;37.08;;;11.13;;
21927;SDS011;11128;51.096;17.190;2022-12-18T04:48:51;36.58;;;11.48;;
21927;SDS011;11128;51.096;17.190;2022-12-18T04:53:53;36.22;;;10.77;;
21927;SDS011;11128;51.096;17.190;2022-12-18T04:58:54;28.08;;;10.07;;
21927;SDS011;11128;51.096;17.190;2022-12-18T05:03:55;33.97;;;10.90;;
21927;SDS011;11128;51.096;17.190;2022-12-18T05:08:57;25.55;;;9.73;;
21927;SDS011;11128;51.096;17.190;2022-12-18T05:14:01;31.27;;;10.18;;
21927;SDS011;11128;51.096;17.190;2022-12-18T05:19:02;39.08;;;11.35;;
21927;SDS011;11128;51.096;17.190;2022-12-18T05:24:03;39.42;;;12.15;;
21927;SDS011;11128;51.096;17.190;2022-12-18T05:29:05;33.80;;;11.00;;
21927;SDS011;11128;51.096;17.190;2022-12-18T05:34:06;29.85;;;10.50;;
21927;SDS011;11128;51.096;17.190;2022-12-18T05:39:08;33.25;;;10.85;;
21927;SDS011;11128;51.096;17.190;2022-12-18T05:44:09;29.33;;;9.85;;
21927;SDS011;11128;51.096;17.190;2022-12-18T05:49:11;33.22;;;10.57;;
21927;SDS011;11128;51.096;17.190;2022-12-18T05:54:12;32.60;;;11.15;;
21927;SDS011;11128;51.096;17.190;2022-12-18T05:59:13;33.35;;;12.05;;
21927;SDS011;11128;51.096;17.190;2022-12-18T06:04:15;33.00;;;11.30;;
21927;SDS011;11128;51.096;17.190;2022-12-18T06:09:16;36.83;;;12.80;;
21927;SDS011;11128;51.096;17.190;2022-12-18T06:14:18;34.15;;;12.43;;
21927;SDS011;11128;51.096;17.190;2022-12-18T06:19:19;39.95;;;12.32;;
21927;SDS011;11128;51.096;17.190;2022-12-18T06:24:20;34.95;;;12.13;;
21927;SDS011;11128;51.096;17.190;2022-12-18T06:29:22;40.88;;;12.25;;
21927;SDS011;11128;51.096;17.190;2022-12-18T06:34:23;43.60;;;14.60;;
21927;SDS011;11128;51.096;17.190;2022-12-18T06:39:26;49.17;;;15.43;;
21927;SDS011;11128;51.096;17.190;2022-12-18T06:44:28;54.05;;;16.65;;
21927;SDS011;11128;51.096;17.190;2022-12-18T06:49:30;39.92;;;15.18;;
21927;SDS011;11128;51.096;17.190;2022-12-18T06:54:31;48.63;;;14.82;;
21927;SDS011;11128;51.096;17.190;2022-12-18T06:59:32;43.17;;;15.60;;
21927;SDS011;11128;51.096;17.190;2022-12-18T07:04:34;58.78;;;18.60;;
21927;SDS011;11128;51.096;17.190;2022-12-18T07:09:35;52.90;;;17.83;;
21927;SDS011;11128;51.096;17.190;2022-12-18T07:14:36;52.47;;;16.70;;
21927;SDS011;11128;51.096;17.190;2022-12-18T07:19:38;41.75;;;14.65;;
21927;SDS011;11128;51.096;17.190;2022-12-18T07:24:39;45.85;;;14.73;;
21927;SDS011;11128;51.096;17.190;2022-12-18T07:29:40;46.05;;;15.50;;
21927;SDS011;11128;51.096;17.190;2022-12-18T07:34:42;53.33;;;17.23;;
21927;SDS011;11128;51.096;17.190;2022-12-18T07:39:44;53.28;;;17.42;;
21927;SDS011;11128;51.096;17.190;2022-12-18T07:44:45;42.58;;;15.25;;
21927;SDS011;11128;51.096;17.190;2022-12-18T07:49:46;45.38;;;14.93;;
21927;SDS011;11128;51.096;17.190;2022-12-18T07:54:47;43.95;;;16.10;;
21927;SDS011;11128;51.096;17.190;2022-12-18T07:59:50;53.83;;;17.73;;
21927;SDS011;11128;51.096;17.190;2022-12-18T08:04:51;46.13;;;16.10;;
21927;SDS011;11128;51.096;17.190;2022-12-18T08:09:53;47.47;;;16.55;;
21927;SDS011;11128;51.096;17.190;2022-12-18T08:14:54;31.27;;;10.15;;
21927;SDS011;11128;51.096;17.190;2022-12-18T08:19:56;60.72;;;23.10;;
21927;SDS011;11128;51.096;17.190;2022-12-18T08:24:58;41.65;;;14.75;;
21927;SDS011;11128;51.096;17.190;2022-12-18T08:29:59;38.83;;;13.88;;
21927;SDS011;11128;51.096;17.190;2022-12-18T08:35:00;37.65;;;14.23;;
21927;SDS011;11128;51.096;17.190;2022-12-18T08:40:02;35.95;;;14.40;;
21927;SDS011;11128;51.096;17.190;2022-12-18T08:45:05;48.17;;;16.95;;
21927;SDS011;11128;51.096;17.190;2022-12-18T08:50:06;42.90;;;14.52;;
21927;SDS011;11128;51.096;17.190;2022-12-18T08:55:08;39.85;;;14.93;;
21927;SDS011;11128;51.096;17.190;2022-12-18T09:00:11;40.53;;;15.85;;
21927;SDS011;11128;51.096;17.190;2022-12-18T09:05:13;44.13;;;15.18;;
21927;SDS011;11128;51.096;17.190;2022-12-18T09:10:15;41.42;;;15.38;;
21927;SDS011;11128;51.096;17.190;2022-12-18T09:15:16;54.17;;;20.50;;
21927;SDS011;11128;51.096;17.190;2022-12-18T09:20:18;50.08;;;18.90;;
21927;SDS011;11128;51.096;17.190;2022-12-18T09:25:19;57.50;;;23.73;;
21927;SDS011;11128;51.096;17.190;2022-12-18T09:30:20;57.22;;;22.33;;
21927;SDS011;11128;51.096;17.190;2022-12-18T09:35:22;55.92;;;20.70;;
21927;SDS011;11128;51.096;17.190;2022-12-18T09:40:24;43.90;;;17.65;;
21927;SDS011;11128;51.096;17.190;2022-12-18T09:45:30;50.00;;;20.90;;
21927;SDS011;11128;51.096;17.190;2022-12-18T09:50:41;57.05;;;22.98;;
21927;SDS011;11128;51.096;17.190;2022-12-18T09:55:45;46.88;;;17.42;;
21927;SDS011;11128;51.096;17.190;2022-12-18T10:00:47;55.75;;;18.88;;
21927;SDS011;11128;51.096;17.190;2022-12-18T10:10:53;43.58;;;17.88;;
21927;SDS011;11128;51.096;17.190;2022-12-18T10:16:09;37.85;;;14.10;;
21927;SDS011;11128;51.096;17.190;2022-12-18T10:22:03;42.05;;;14.85;;
21927;SDS011;11128;51.096;17.190;2022-12-18T10:27:14;46.03;;;17.23;;
21927;SDS011;11128;51.096;17.190;2022-12-18T10:33:37;49.22;;;19.88;;
21927;SDS011;11128;51.096;17.190;2022-12-18T10:38:38;36.08;;;15.27;;
21927;SDS011;11128;51.096;17.190;2022-12-18T10:43:40;37.67;;;15.25;;
21927;SDS011;11128;51.096;17.190;2022-12-18T10:53:51;39.60;;;14.23;;
21927;SDS011;11128;51.096;17.190;2022-12-18T10:59:00;37.25;;;13.43;;
21927;SDS011;11128;51.096;17.190;2022-12-18T11:04:09;42.78;;;16.33;;
21927;SDS011;11128;51.096;17.190;2022-12-18T11:09:20;47.47;;;15.55;;
21927;SDS011;11128;51.096;17.190;2022-12-18T11:14:25;44.50;;;16.75;;
21927;SDS011;11128;51.096;17.190;2022-12-18T11:19:35;60.42;;;19.67;;
21927;SDS011;11128;51.096;17.190;2022-12-18T11:24:38;53.50;;;21.00;;
21927;SDS011;11128;51.096;17.190;2022-12-18T11:29:40;47.72;;;17.42;;
21927;SDS011;11128;51.096;17.190;2022-12-18T11:34:44;54.50;;;21.20;;
21927;SDS011;11128;51.096;17.190;2022-12-18T11:39:50;51.22;;;18.63;;
21927;SDS011;11128;51.096;17.190;2022-12-18T11:45:31;60.25;;;19.20;;
21927;SDS011;11128;51.096;17.190;2022-12-18T12:11:57;58.85;;;20.42;;
21927;SDS011;11128;51.096;17.190;2022-12-18T12:17:50;56.80;;;21.10;;
21927;SDS011;11128;51.096;17.190;2022-12-18T12:43:36;54.05;;;18.75;;
21927;SDS011;11128;51.096;17.190;2022-12-18T12:48:44;45.85;;;19.02;;
21927;SDS011;11128;51.096;17.190;2022-12-18T12:53:48;43.45;;;17.00;;
21927;SDS011;11128;51.096;17.190;2022-12-18T13:09:31;49.78;;;18.48;;
21927;SDS011;11128;51.096;17.190;2022-12-18T13:19:36;46.10;;;16.08;;
21927;SDS011;11128;51.096;17.190;2022-12-18T13:24:38;55.97;;;21.33;;
21927;SDS011;11128;51.096;17.190;2022-12-18T13:29:41;61.25;;;20.38;;
21927;SDS011;11128;51.096;17.190;2022-12-18T13:34:44;54.97;;;20.55;;
21927;SDS011;11128;51.096;17.190;2022-12-18T13:39:46;56.55;;;20.50;;
21927;SDS011;11128;51.096;17.190;2022-12-18T13:44:47;43.42;;;15.15;;
21927;SDS011;11128;51.096;17.190;2022-12-18T13:49:49;51.00;;;15.63;;
21927;SDS011;11128;51.096;17.190;2022-12-18T13:54:52;48.47;;;19.00;;
21927;SDS011;11128;51.096;17.190;2022-12-18T13:59:56;63.13;;;20.92;;
21927;SDS011;11128;51.096;17.190;2022-12-18T14:04:58;63.75;;;20.92;;
21927;SDS011;11128;51.096;17.190;2022-12-18T14:10:00;71.68;;;23.02;;
21927;SDS011;11128;51.096;17.190;2022-12-18T14:15:03;86.78;;;25.90;;
21927;SDS011;11128;51.096;17.190;2022-12-18T14:20:12;68.75;;;25.05;;
21927;SDS011;11128;51.096;17.190;2022-12-18T14:25:22;69.25;;;24.40;;
21927;SDS011;11128;51.096;17.190;2022-12-18T14:30:41;77.05;;;25.65;;
21927;SDS011;11128;51.096;17.190;2022-12-18T14:35:58;80.72;;;25.88;;
21927;SDS011;11128;51.096;17.190;2022-12-18T14:46:04;64.45;;;21.75;;
21927;SDS011;11128;51.096;17.190;2022-12-18T14:51:27;66.65;;;21.33;;
21927;SDS011;11128;51.096;17.190;2022-12-18T14:56:31;69.32;;;21.67;;
21927;SDS011;11128;51.096;17.190;2022-12-18T15:01:45;59.75;;;19.77;;
21927;SDS011;11128;51.096;17.190;2022-12-18T15:17:41;52.97;;;16.05;;
21927;SDS011;11128;51.096;17.190;2022-12-18T15:22:43;62.47;;;19.63;;
21927;SDS011;11128;51.096;17.190;2022-12-18T15:27:48;69.65;;;22.83;;
21927;SDS011;11128;51.096;17.190;2022-12-18T15:32:50;65.70;;;23.45;;
21927;SDS011;11128;51.096;17.190;2022-12-18T15:37:52;60.85;;;21.40;;
21927;SDS011;11128;51.096;17.190;2022-12-18T15:42:54;62.40;;;22.05;;
21927;SDS011;11128;51.096;17.190;2022-12-18T15:48:18;72.82;;;22.88;;
21927;SDS011;11128;51.096;17.190;2022-12-18T15:53:22;69.35;;;23.25;;
21927;SDS011;11128;51.096;17.190;2022-12-18T15:58:24;61.05;;;21.80;;
21927;SDS011;11128;51.096;17.190;2022-12-18T16:03:26;55.70;;;21.17;;
21927;SDS011;11128;51.096;17.190;2022-12-18T16:08:29;73.47;;;25.27;;
21927;SDS011;11128;51.096;17.190;2022-12-18T16:13:30;60.28;;;22.85;;
21927;SDS011;11128;51.096;17.190;2022-12-18T16:18:32;60.40;;;23.95;;
21927;SDS011;11128;51.096;17.190;2022-12-18T16:23:33;68.95;;;22.23;;
21927;SDS011;11128;51.096;17.190;2022-12-18T16:28:35;57.08;;;21.52;;
21927;SDS011;11128;51.096;17.190;2022-12-18T16:33:38;50.25;;;20.42;;
21927;SDS011;11128;51.096;17.190;2022-12-18T16:38:39;59.55;;;20.60;;
21927;SDS011;11128;51.096;17.190;2022-12-18T16:43:41;68.40;;;22.23;;
21927;SDS011;11128;51.096;17.190;2022-12-18T16:48:43;61.75;;;25.92;;
21927;SDS011;11128;51.096;17.190;2022-12-18T16:53:44;63.78;;;21.92;;
21927;SDS011;11128;51.096;17.190;2022-12-18T16:58:55;68.43;;;22.75;;
21927;SDS011;11128;51.096;17.190;2022-12-18T17:04:00;66.90;;;22.42;;
21927;SDS011;11128;51.096;17.190;2022-12-18T17:09:03;69.18;;;22.13;;
21927;SDS011;11128;51.096;17.190;2022-12-18T17:14:07;110.93;;;31.30;;
21927;SDS011;11128;51.096;17.190;2022-12-18T17:19:10;116.50;;;37.38;;
21927;SDS011;11128;51.096;17.190;2022-12-18T17:24:13;114.05;;;38.88;;
21927;SDS011;11128;51.096;17.190;2022-12-18T17:29:15;101.35;;;33.13;;
21927;SDS011;11128;51.096;17.190;2022-12-18T17:34:19;124.82;;;39.20;;
21927;SDS011;11128;51.096;17.190;2022-12-18T17:39:21;98.35;;;33.90;;
21927;SDS011;11128;51.096;17.190;2022-12-18T17:44:23;129.38;;;41.10;;
21927;SDS011;11128;51.096;17.190;2022-12-18T17:49:24;106.10;;;35.50;;
21927;SDS011;11128;51.096;17.190;2022-12-18T17:54:25;124.15;;;38.63;;
21927;SDS011;11128;51.096;17.190;2022-12-18T17:59:27;111.07;;;37.72;;
21927;SDS011;11128;51.096;17.190;2022-12-18T18:04:28;106.25;;;30.17;;
21927;SDS011;11128;51.096;17.190;2022-12-18T18:09:30;116.93;;;34.85;;
21927;SDS011;11128;51.096;17.190;2022-12-18T18:14:31;91.43;;;31.08;;
21927;SDS011;11128;51.096;17.190;2022-12-18T18:19:33;85.45;;;29.48;;
21927;SDS011;11128;51.096;17.190;2022-12-18T18:24:34;105.68;;;33.17;;
21927;SDS011;11128;51.096;17.190;2022-12-18T18:29:35;94.40;;;28.60;;
21927;SDS011;11128;51.096;17.190;2022-12-18T18:34:40;97.60;;;32.75;;
21927;SDS011;11128;51.096;17.190;2022-12-18T18:39:41;95.50;;;28.85;;
21927;SDS011;11128;51.096;17.190;2022-12-18T18:44:44;106.95;;;30.05;;
21927;SDS011;11128;51.096;17.190;2022-12-18T18:49:46;90.68;;;31.77;;
21927;SDS011;11128;51.096;17.190;2022-12-18T18:54:48;89.15;;;32.10;;
21927;SDS011;11128;51.096;17.190;2022-12-18T18:59:49;106.18;;;34.22;;
21927;SDS011;11128;51.096;17.190;2022-12-18T19:05:01;102.95;;;35.33;;
21927;SDS011;11128;51.096;17.190;2022-12-18T19:10:15;119.47;;;36.47;;
21927;SDS011;11128;51.096;17.190;2022-12-18T19:15:22;107.32;;;35.60;;
21927;SDS011;11128;51.096;17.190;2022-12-18T19:20:23;121.30;;;38.72;;
21927;SDS011;11128;51.096;17.190;2022-12-18T19:25:25;141.32;;;40.20;;
21927;SDS011;11128;51.096;17.190;2022-12-18T19:30:28;122.82;;;39.47;;
21927;SDS011;11128;51.096;17.190;2022-12-18T19:35:30;113.13;;;36.25;;
21927;SDS011;11128;51.096;17.190;2022-12-18T19:40:31;121.30;;;37.25;;
21927;SDS011;11128;51.096;17.190;2022-12-18T19:45:32;113.93;;;35.95;;
21927;SDS011;11128;51.096;17.190;2022-12-18T19:50:37;78.47;;;27.08;;
21927;SDS011;11128;51.096;17.190;2022-12-18T19:55:42;101.15;;;32.30;;
21927;SDS011;11128;51.096;17.190;2022-12-18T20:00:44;92.32;;;29.30;;
21927;SDS011;11128;51.096;17.190;2022-12-18T20:05:45;96.43;;;31.60;;
21927;SDS011;11128;51.096;17.190;2022-12-18T20:10:47;94.03;;;25.35;;
21927;SDS011;11128;51.096;17.190;2022-12-18T20:15:48;103.32;;;31.80;;
21927;SDS011;11128;51.096;17.190;2022-12-18T20:20:50;120.70;;;37.90;;
21927;SDS011;11128;51.096;17.190;2022-12-18T20:25:52;119.38;;;33.72;;
21927;SDS011;11128;51.096;17.190;2022-12-18T20:31:00;83.63;;;27.52;;
21927;SDS011;11128;51.096;17.190;2022-12-18T20:36:03;71.50;;;25.67;;
21927;SDS011;11128;51.096;17.190;2022-12-18T20:41:08;84.22;;;26.63;;
21927;SDS011;11128;51.096;17.190;2022-12-18T20:46:12;74.65;;;23.15;;
21927;SDS011;11128;51.096;17.190;2022-12-18T20:51:16;76.43;;;24.38;;
21927;SDS011;11128;51.096;17.190;2022-12-18T20:56:19;85.35;;;29.38;;
21927;SDS011;11128;51.096;17.190;2022-12-18T21:01:22;72.13;;;23.05;;
21927;SDS011;11128;51.096;17.190;2022-12-18T21:06:26;97.43;;;30.08;;
21927;SDS011;11128;51.096;17.190;2022-12-18T21:11:28;82.32;;;28.33;;
21927;SDS011;11128;51.096;17.190;2022-12-18T21:16:52;98.47;;;29.13;;
21927;SDS011;11128;51.096;17.190;2022-12-18T21:21:54;87.13;;;27.70;;
21927;SDS011;11128;51.096;17.190;2022-12-18T21:26:59;84.05;;;27.88;;
21927;SDS011;11128;51.096;17.190;2022-12-18T21:32:01;89.75;;;27.55;;
21927;SDS011;11128;51.096;17.190;2022-12-18T21:37:03;89.20;;;25.58;;
21927;SDS011;11128;51.096;17.190;2022-12-18T21:42:04;93.45;;;30.00;;
21927;SDS011;11128;51.096;17.190;2022-12-18T21:47:24;118.93;;;34.83;;
21927;SDS011;11128;51.096;17.190;2022-12-18T21:52:25;125.72;;;33.65;;
21927;SDS011;11128;51.096;17.190;2022-12-18T21:57:26;116.72;;;35.33;;
21927;SDS011;11128;51.096;17.190;2022-12-18T22:02:28;93.28;;;30.48;;
21927;SDS011;11128;51.096;17.190;2022-12-18T22:07:29;76.03;;;25.05;;
21927;SDS011;11128;51.096;17.190;2022-12-18T22:12:30;91.18;;;29.10;;
21927;SDS011;11128;51.096;17.190;2022-12-18T22:17:34;97.70;;;29.40;;
21927;SDS011;11128;51.096;17.190;2022-12-18T22:22:35;86.32;;;30.30;;
21927;SDS011;11128;51.096;17.190;2022-12-18T22:27:37;108.88;;;31.35;;
21927;SDS011;11128;51.096;17.190;2022-12-18T22:32:38;97.28;;;30.02;;
21927;SDS011;11128;51.096;17.190;2022-12-18T22:37:39;86.65;;;30.02;;
21927;SDS011;11128;51.096;17.190;2022-12-18T22:42:40;90.82;;;28.73;;
21927;SDS011;11128;51.096;17.190;2022-12-18T22:47:41;95.13;;;30.73;;
21927;SDS011;11128;51.096;17.190;2022-12-18T22:52:43;101.25;;;30.38;;
21927;SDS011;11128;51.096;17.190;2022-12-18T22:57:44;90.05;;;30.40;;
21927;SDS011;11128;51.096;17.190;2022-12-18T23:02:45;101.43;;;30.08;;
21927;SDS011;11128;51.096;17.190;2022-12-18T23:07:46;98.22;;;31.48;;
21927;SDS011;11128;51.096;17.190;2022-12-18T23:12:47;100.72;;;31.85;;
21927;SDS011;11128;51.096;17.190;2022-12-18T23:17:49;110.22;;;35.33;;
21927;SDS011;11128;51.096;17.190;2022-12-18T23:22:50;102.22;;;34.25;;
21927;SDS011;11128;51.096;17.190;2022-12-18T23:27:51;102.43;;;35.03;;
21927;SDS011;11128;51.096;17.190;2022-12-18T23:32:52;119.07;;;38.00;;
21927;SDS011;11128;51.096;17.190;2022-12-18T23:37:54;131.50;;;43.05;;
21927;SDS011;11128;51.096;17.190;2022-12-18T23:42:55;101.55;;;34.20;;
21927;SDS011;11128;51.096;17.190;2022-12-18T23:47:56;105.45;;;35.03;;
21927;SDS011;11128;51.096;17.190;2022-12-18T23:52:57;117.07;;;38.35;;
21927;SDS011;11128;51.096;17.190;2022-12-18T23:57:59;126.50;;;42.05;;
